Time;durP1;ratioP1;P1;durP2;ratioP2;P2;SDS_P1;SDS_P2;PMS_P1;PMS_P2;Temp;Humidity;BMP_temperature;BMP_pressure;BME280_temperature;BME280_humidity;BME280_pressure;Samples;Min_cycle;Max_cycle;Signal;HPM_P1;HPM_P2
2021/12/01 00:00:19;;;;;;;39.85;18.33;;;8.50;99.90;;;;;;2129381;67;20336;-66
2021/12/01 00:03:02;;;;;;;33.13;14.98;;;8.50;99.90;;;;;;2137844;67;20216;-67
2021/12/01 00:05:46;;;;;;;32.17;16.88;;;8.60;99.90;;;;;;2112684;67;20427;-66
2021/12/01 00:08:29;;;;;;;37.17;16.92;;;8.70;99.90;;;;;;2120966;67;20177;-66
2021/12/01 00:11:11;;;;;;;32.78;16.00;;;8.70;99.90;;;;;;2111333;67;20365;-67
2021/12/01 00:13:52;;;;;;;38.75;18.40;;;8.80;99.90;;;;;;2103905;68;20493;-67
2021/12/01 00:16:34;;;;;;;38.33;18.27;;;8.80;99.90;;;;;;2083689;68;20214;-67
2021/12/01 00:19:16;;;;;;;37.63;18.00;;;8.90;99.90;;;;;;2090101;68;20335;-66
2021/12/01 00:21:59;;;;;;;39.28;19.70;;;8.90;99.90;;;;;;2111368;67;20351;-66
2021/12/01 00:24:42;;;;;;;42.22;19.70;;;8.90;99.90;;;;;;2125032;67;20271;-67
2021/12/01 00:27:26;;;;;;;37.22;19.48;;;9.00;99.90;;;;;;2117523;67;20607;-66
2021/12/01 00:30:09;;;;;;;45.30;20.77;;;9.00;99.90;;;;;;2118317;67;20741;-66
2021/12/01 00:32:53;;;;;;;39.90;20.48;;;9.10;99.90;;;;;;2125432;67;20321;-67
2021/12/01 00:35:35;;;;;;;40.60;19.48;;;9.10;99.90;;;;;;2113379;67;20390;-66
2021/12/01 00:38:17;;;;;;;39.33;21.17;;;9.10;99.90;;;;;;2111278;67;20339;-67
2021/12/01 00:41:02;;;;;;;42.80;24.45;;;9.10;99.90;;;;;;2114790;67;20185;-66
2021/12/01 00:43:44;;;;;;;34.15;22.33;;;9.20;99.90;;;;;;2118807;67;20300;-65
2021/12/01 00:46:41;;;;;;;45.95;22.88;;;9.20;99.90;;;;;;2107002;67;20233;-65
2021/12/01 00:49:37;;;;;;;47.30;24.60;;;9.20;99.90;;;;;;2110362;67;20170;-66
2021/12/01 00:52:19;;;;;;;47.40;25.83;;;9.20;99.90;;;;;;2109979;67;20331;-66
2021/12/01 00:55:01;;;;;;;46.08;26.58;;;9.20;99.90;;;;;;2093730;68;20366;-67
2021/12/01 00:57:42;;;;;;;55.97;27.75;;;9.20;99.90;;;;;;2107815;67;20327;-66
2021/12/01 01:00:26;;;;;;;43.22;22.63;;;9.20;99.90;;;;;;2117700;67;20207;-67
2021/12/01 01:03:09;;;;;;;41.60;23.08;;;9.20;99.90;;;;;;2118694;67;20337;-68
2021/12/01 01:05:54;;;;;;;36.97;20.92;;;9.20;99.90;;;;;;2136657;66;20339;-68
2021/12/01 01:08:36;;;;;;;38.55;25.13;;;9.30;99.90;;;;;;2131532;67;20660;-67
2021/12/01 01:17:19;;;;;;;38.45;23.00;;;9.20;99.90;;;;;;2121717;67;20277;-67
2021/12/01 01:20:01;;;;;;;32.90;21.10;;;9.30;99.90;;;;;;2114921;67;20176;-67
2021/12/01 01:22:44;;;;;;;37.03;20.25;;;9.20;99.90;;;;;;2122960;67;20165;-67
2021/12/01 01:25:30;;;;;;;31.42;19.50;;;9.20;99.90;;;;;;2125191;67;20172;-68
2021/12/01 01:28:12;;;;;;;36.83;17.88;;;9.20;99.90;;;;;;2115108;67;20244;-66
2021/12/01 01:30:55;;;;;;;31.02;19.48;;;9.30;99.90;;;;;;2115309;67;20232;-67
2021/12/01 01:33:38;;;;;;;36.28;21.13;;;9.20;99.90;;;;;;2115366;67;20177;-69
2021/12/01 01:36:23;;;;;;;31.45;18.70;;;9.20;99.90;;;;;;2129142;67;20263;-67
2021/12/01 01:39:06;;;;;;;30.00;17.73;;;9.30;99.90;;;;;;2127759;66;20247;-70
2021/12/01 01:41:52;;;;;;;;;;;9.20;99.90;;;;;;2143300;66;20257;-68
2021/12/01 01:44:37;;;;;;;21.52;15.68;;;9.30;99.90;;;;;;2137855;66;20479;-66
2021/12/01 01:47:20;;;;;;;27.33;15.73;;;9.40;99.90;;;;;;2131791;67;20429;-68
2021/12/01 01:51:04;;;;;;;27.15;14.38;;;9.40;99.90;;;;;;2138034;66;20365;-68
2021/12/01 01:53:22;;;;;;;21.58;14.38;;;9.40;99.90;;;;;;2149584;66;20278;-69
2021/12/01 01:56:07;;;;;;;22.85;12.20;;;9.40;99.90;;;;;;2141512;66;20198;-68
2021/12/01 01:58:49;;;;;;;23.17;11.98;;;9.40;99.90;;;;;;2126766;67;20405;-66
2021/12/01 02:04:19;;;;;;;18.80;10.23;;;9.50;99.90;;;;;;2124315;67;20721;-68
2021/12/01 02:07:03;;;;;;;18.02;8.68;;;9.50;99.90;;;;;;2112495;67;20257;-67
2021/12/01 02:09:45;;;;;;;18.90;7.95;;;9.50;99.90;;;;;;2111170;67;20223;-68
2021/12/01 02:12:28;;;;;;;14.40;7.72;;;9.50;99.90;;;;;;2124553;67;20235;-67
2021/12/01 02:15:14;;;;;;;12.65;6.13;;;9.50;99.90;;;;;;2126338;67;20348;-67
2021/12/01 02:17:59;;;;;;;10.93;5.95;;;9.50;99.90;;;;;;2115294;67;20651;-67
2021/12/01 02:21:01;;;;;;;11.95;5.38;;;9.60;99.90;;;;;;2103664;67;20868;-68
2021/12/01 02:23:49;;;;;;;9.88;6.07;;;9.60;99.90;;;;;;2117447;67;20771;-68
2021/12/01 02:26:36;;;;;;;8.65;3.80;;;9.50;99.90;;;;;;2111703;67;20771;-69
2021/12/01 02:29:24;;;;;;;12.30;3.55;;;9.50;99.90;;;;;;2113086;67;20345;-67
2021/12/01 02:32:06;;;;;;;;;;;9.50;99.90;;;;;;2110105;67;20194;-67
2021/12/01 02:34:52;;;;;;;6.95;3.15;;;9.50;99.90;;;;;;2114335;67;20238;-67
2021/12/01 02:37:51;;;;;;;9.55;3.35;;;9.50;99.90;;;;;;2113830;67;20818;-67
2021/12/01 02:40:33;;;;;;;5.38;2.78;;;9.40;99.90;;;;;;2104645;67;20810;-66
2021/12/01 02:43:15;;;;;;;5.50;2.30;;;9.50;99.90;;;;;;2110597;67;20312;-67
2021/12/01 02:45:58;;;;;;;4.03;2.25;;;9.50;99.90;;;;;;2111486;67;20777;-67
2021/12/01 02:48:42;;;;;;;6.97;2.63;;;9.40;99.90;;;;;;2117449;67;20552;-67
2021/12/01 02:51:30;;;;;;;9.70;3.13;;;9.50;99.90;;;;;;2124288;67;20239;-68
2021/12/01 02:54:13;;;;;;;5.68;3.15;;;9.50;99.90;;;;;;2117613;67;20427;-68
2021/12/01 02:56:59;;;;;;;8.55;3.40;;;9.40;99.90;;;;;;2119219;67;20350;-68
2021/12/01 02:59:41;;;;;;;5.45;2.90;;;9.50;99.90;;;;;;2125187;67;20365;-69
2021/12/01 03:02:23;;;;;;;6.82;2.47;;;9.50;99.90;;;;;;2118173;67;20203;-68
2021/12/01 03:05:06;;;;;;;4.88;2.17;;;9.50;99.90;;;;;;2124256;67;20639;-67
2021/12/01 03:07:49;;;;;;;10.52;2.55;;;9.50;99.90;;;;;;2123741;67;20334;-69
2021/12/01 03:10:35;;;;;;;4.68;2.15;;;9.50;99.90;;;;;;2112054;67;20647;-67
2021/12/01 03:13:20;;;;;;;;;;;9.60;99.90;;;;;;2105048;67;20256;-67
2021/12/01 03:16:02;;;;;;;4.57;2.28;;;9.50;99.90;;;;;;2121084;67;20201;-66
2021/12/01 03:18:44;;;;;;;6.93;2.17;;;9.50;99.90;;;;;;2125174;67;20327;-67
2021/12/01 03:21:26;;;;;;;4.45;2.05;;;9.60;99.90;;;;;;2130360;67;20303;-66
2021/12/01 03:24:09;;;;;;;5.97;2.20;;;9.60;99.90;;;;;;2116647;67;20205;-67
2021/12/01 03:26:51;;;;;;;6.35;2.22;;;9.60;99.90;;;;;;2138542;66;20646;-67
2021/12/01 03:29:33;;;;;;;2.75;1.70;;;9.60;99.90;;;;;;2129532;67;20757;-66
2021/12/01 03:32:14;;;;;;;6.00;1.98;;;9.60;99.90;;;;;;2142495;66;20699;-67
2021/12/01 03:34:57;;;;;;;7.18;2.22;;;9.60;99.90;;;;;;2142793;66;20171;-67
2021/12/01 03:37:41;;;;;;;4.97;2.20;;;9.60;99.90;;;;;;2132590;67;20256;-68
2021/12/01 03:40:23;;;;;;;8.88;2.17;;;9.60;99.90;;;;;;2125701;67;20235;-67
2021/12/01 03:43:04;;;;;;;11.63;3.45;;;9.60;99.90;;;;;;2127260;67;20273;-67
2021/12/01 03:45:46;;;;;;;9.68;2.83;;;9.50;99.90;;;;;;2120984;67;20805;-67
2021/12/01 03:48:28;;;;;;;13.40;3.15;;;9.60;99.90;;;;;;2126212;67;20748;-67
2021/12/01 03:51:10;;;;;;;7.80;2.63;;;9.50;99.90;;;;;;2132903;67;20180;-68
2021/12/01 03:53:51;;;;;;;8.93;2.63;;;9.50;99.90;;;;;;2139889;66;20383;-67
2021/12/01 03:56:34;;;;;;;12.25;2.63;;;9.50;99.90;;;;;;2161590;66;20186;-66
2021/12/01 03:59:16;;;;;;;8.15;3.13;;;9.60;99.90;;;;;;2139144;67;20215;-67
2021/12/01 04:01:57;;;;;;;9.25;2.80;;;9.50;99.90;;;;;;2133462;67;20258;-67
2021/12/01 04:04:41;;;;;;;12.43;2.70;;;9.50;99.90;;;;;;2138497;67;20231;-66
2021/12/01 04:07:26;;;;;;;10.38;3.50;;;9.40;99.90;;;;;;2132279;67;20982;-68
2021/12/01 04:10:12;;;;;;;15.93;4.47;;;9.40;99.90;;;;;;2126890;67;20418;-67
2021/12/01 04:12:56;;;;;;;12.40;3.92;;;9.40;99.90;;;;;;2118352;67;20386;-67
2021/12/01 04:15:42;;;;;;;13.88;3.90;;;9.40;99.90;;;;;;2120906;67;20283;-67
2021/12/01 04:18:23;;;;;;;15.23;3.00;;;9.40;99.90;;;;;;2105590;67;20850;-66
2021/12/01 04:21:05;;;;;;;12.27;3.30;;;9.40;99.90;;;;;;2104447;67;20230;-67
2021/12/01 04:23:46;;;;;;;11.75;2.65;;;9.40;99.90;;;;;;2097555;68;20616;-66
2021/12/01 04:26:31;;;;;;;9.02;2.85;;;9.50;99.90;;;;;;2090885;68;20747;-65
2021/12/01 04:29:14;;;;;;;5.00;2.45;;;9.40;99.90;;;;;;2101820;67;20196;-66
2021/12/01 04:31:57;;;;;;;7.78;2.67;;;9.40;99.90;;;;;;2112829;67;20324;-66
2021/12/01 04:34:43;;;;;;;14.95;4.30;;;9.40;99.90;;;;;;2104647;67;20191;-65
2021/12/01 04:37:30;;;;;;;14.18;2.90;;;9.40;99.90;;;;;;2099125;68;20196;-65
2021/12/01 04:40:13;;;;;;;5.60;3.20;;;9.40;99.90;;;;;;2110998;67;20343;-66
2021/12/01 04:42:56;;;;;;;7.40;2.67;;;9.40;99.90;;;;;;2116962;67;20201;-66
2021/12/01 04:45:42;;;;;;;6.28;2.72;;;9.40;99.90;;;;;;2126582;67;20808;-66
2021/12/01 04:48:29;;;;;;;6.93;2.60;;;9.40;99.90;;;;;;2122943;67;20432;-67
2021/12/01 04:51:17;;;;;;;12.20;3.58;;;9.40;99.90;;;;;;2129225;67;20269;-66
2021/12/01 04:53:59;;;;;;;9.40;3.70;;;9.40;99.90;;;;;;2116084;67;20314;-67
2021/12/01 04:56:44;;;;;;;8.10;3.13;;;9.40;99.90;;;;;;2106334;67;20225;-67
2021/12/01 04:59:29;;;;;;;8.05;3.65;;;9.40;99.90;;;;;;2126159;67;20683;-69
2021/12/01 05:02:11;;;;;;;7.20;4.18;;;9.30;99.90;;;;;;2125970;67;20713;-66
2021/12/01 05:04:52;;;;;;;8.68;4.10;;;9.40;99.90;;;;;;2115607;67;20871;-65
2021/12/01 05:07:34;;;;;;;4.25;3.70;;;9.30;99.90;;;;;;2097342;68;20316;-66
2021/12/01 05:10:16;;;;;;;6.05;3.97;;;9.30;99.90;;;;;;2097120;68;20222;-66
2021/12/01 05:12:59;;;;;;;8.20;4.75;;;9.30;99.90;;;;;;2110821;67;20632;-67
2021/12/01 05:15:45;;;;;;;6.25;3.08;;;9.30;99.90;;;;;;2118508;67;20325;-66
2021/12/01 05:18:29;;;;;;;5.88;2.95;;;9.30;99.90;;;;;;2112413;67;20352;-66
2021/12/01 05:21:10;;;;;;;2.03;1.77;;;9.30;99.90;;;;;;2117294;67;20213;-67
2021/12/01 05:23:52;;;;;;;2.53;1.67;;;9.30;99.90;;;;;;2138932;67;20354;-66
2021/12/01 05:26:36;;;;;;;2.58;1.40;;;9.30;99.90;;;;;;2132711;67;20933;-66
2021/12/01 05:29:23;;;;;;;2.58;1.33;;;9.30;99.90;;;;;;2143194;66;20325;-66
2021/12/01 05:32:07;;;;;;;1.27;0.93;;;9.20;99.90;;;;;;2140521;66;20171;-66
2021/12/01 05:34:50;;;;;;;2.15;1.20;;;9.20;99.90;;;;;;2146406;66;20714;-65
2021/12/01 05:37:35;;;;;;;2.22;1.17;;;9.20;99.90;;;;;;2139415;66;20233;-66
2021/12/01 05:40:20;;;;;;;2.63;1.00;;;9.20;99.90;;;;;;2139343;66;20273;-65
2021/12/01 05:43:03;;;;;;;1.27;1.10;;;9.10;99.90;;;;;;2147399;66;20327;-66
2021/12/01 05:45:46;;;;;;;1.73;1.30;;;9.10;99.90;;;;;;2142842;66;20191;-66
2021/12/01 05:48:31;;;;;;;2.92;1.20;;;9.10;99.90;;;;;;2120599;67;20172;-65
2021/12/01 05:51:16;;;;;;;3.42;1.10;;;9.10;99.90;;;;;;2128962;67;20711;-65
2021/12/01 05:53:59;;;;;;;2.97;1.52;;;9.10;99.90;;;;;;2118050;67;20605;-67
2021/12/01 05:56:43;;;;;;;3.42;1.90;;;9.00;99.90;;;;;;2110983;67;20237;-66
2021/12/01 05:59:26;;;;;;;3.10;2.20;;;9.00;99.90;;;;;;2126031;67;20237;-66
2021/12/01 06:02:07;;;;;;;4.40;2.33;;;9.00;99.90;;;;;;2135343;67;20341;-66
2021/12/01 06:04:49;;;;;;;4.10;2.53;;;9.00;99.90;;;;;;2126877;67;20735;-66
2021/12/01 06:07:31;;;;;;;4.10;2.67;;;9.00;99.90;;;;;;2132285;66;20214;-65
2021/12/01 06:10:13;;;;;;;2.97;2.35;;;8.90;99.90;;;;;;2146506;66;20186;-66
2021/12/01 06:12:55;;;;;;;4.43;1.98;;;8.90;99.90;;;;;;2120293;67;20248;-66
2021/12/01 06:15:37;;;;;;;5.65;2.40;;;8.90;99.90;;;;;;2118291;67;20613;-66
2021/12/01 06:18:20;;;;;;;3.92;2.45;;;8.90;99.90;;;;;;2120184;67;20353;-66
2021/12/01 06:21:09;;;;;;;3.58;2.42;;;8.90;99.90;;;;;;2132053;67;20703;-66
2021/12/01 06:23:54;;;;;;;;;;;8.90;99.90;;;;;;2122175;67;20822;-66
2021/12/01 06:26:37;;;;;;;6.22;2.75;;;8.90;99.90;;;;;;2112118;67;20096;-66
2021/12/01 06:29:23;;;;;;;3.67;2.70;;;8.90;99.90;;;;;;2117793;67;20333;-66
2021/12/01 06:32:08;;;;;;;2.65;1.70;;;8.80;99.90;;;;;;2124224;67;20708;-65
2021/12/01 06:34:50;;;;;;;3.60;2.17;;;8.90;99.90;;;;;;2136371;67;20244;-67
2021/12/01 06:37:33;;;;;;;2.78;2.10;;;8.90;99.90;;;;;;2127822;67;20330;-66
2021/12/01 06:40:18;;;;;;;3.78;2.47;;;8.80;99.90;;;;;;2145427;66;20700;-66
2021/12/01 06:43:00;;;;;;;3.80;2.25;;;8.80;99.90;;;;;;2129920;67;20213;-67
2021/12/01 06:45:43;;;;;;;2.55;2.30;;;8.80;99.90;;;;;;2110541;67;20371;-67
2021/12/01 06:48:28;;;;;;;2.10;1.48;;;8.80;99.90;;;;;;2121281;67;20342;-68
2021/12/01 06:51:09;;;;;;;3.47;1.95;;;8.70;99.90;;;;;;2117289;67;20180;-67
2021/12/01 06:53:54;;;;;;;2.45;1.80;;;8.70;99.90;;;;;;2106107;67;20263;-66
2021/12/01 06:56:36;;;;;;;3.72;2.30;;;8.70;99.90;;;;;;2097966;68;20262;-67
2021/12/01 06:59:18;;;;;;;3.35;2.30;;;8.70;99.90;;;;;;2103729;67;20721;-67
2021/12/01 07:02:00;;;;;;;4.00;2.53;;;8.60;99.90;;;;;;2105114;67;20242;-68
2021/12/01 07:04:42;;;;;;;3.92;2.30;;;8.70;99.90;;;;;;2124771;67;20301;-67
2021/12/01 07:07:25;;;;;;;3.40;2.35;;;8.70;99.90;;;;;;2117618;67;20208;-68
2021/12/01 07:10:10;;;;;;;3.25;2.80;;;8.70;99.90;;;;;;2117522;67;20266;-67
2021/12/01 07:12:53;;;;;;;4.22;2.17;;;8.60;99.90;;;;;;2117883;67;20193;-66
2021/12/01 07:15:38;;;;;;;4.38;3.03;;;8.70;99.90;;;;;;2117395;67;20353;-68
2021/12/01 07:18:20;;;;;;;2.90;2.40;;;8.60;99.90;;;;;;2118605;67;20244;-66
2021/12/01 07:21:05;;;;;;;4.00;3.30;;;8.70;99.90;;;;;;2123022;67;20701;-67
2021/12/01 07:23:50;;;;;;;5.82;3.50;;;8.70;99.90;;;;;;2125405;67;20341;-67
2021/12/01 07:26:33;;;;;;;3.65;2.92;;;8.70;99.90;;;;;;2124486;67;20358;-68
2021/12/01 07:29:18;;;;;;;4.22;2.88;;;8.70;99.90;;;;;;2110608;67;20338;-67
2021/12/01 07:32:00;;;;;;;5.97;3.45;;;8.70;99.90;;;;;;2103747;67;20202;-66
2021/12/01 07:34:42;;;;;;;7.55;4.05;;;8.60;99.90;;;;;;2093660;68;20815;-67
2021/12/01 07:37:30;;;;;;;6.45;3.95;;;8.70;99.90;;;;;;2103258;68;20315;-66
2021/12/01 07:40:14;;;;;;;5.93;3.65;;;8.70;99.90;;;;;;2094833;67;20262;-67
2021/12/01 07:42:56;;;;;;;5.28;3.42;;;8.70;99.90;;;;;;2112618;67;20336;-66
2021/12/01 07:45:43;;;;;;;7.10;3.92;;;8.60;99.90;;;;;;2121865;67;20376;-67
2021/12/01 07:48:27;;;;;;;4.43;3.33;;;8.70;99.90;;;;;;2116937;67;20380;-67
2021/12/01 07:51:12;;;;;;;;;;;8.70;99.90;;;;;;2118904;67;20206;-67
2021/12/01 07:53:56;;;;;;;6.93;4.28;;;8.70;99.90;;;;;;2113143;67;20164;-67
2021/12/01 07:56:40;;;;;;;7.70;4.50;;;8.70;99.90;;;;;;2111836;67;20166;-66
2021/12/01 07:59:25;;;;;;;;;;;8.70;99.90;;;;;;2126122;67;20508;-67
2021/12/01 08:02:12;;;;;;;9.55;4.55;;;8.80;99.90;;;;;;2133590;67;20525;-67
2021/12/01 08:04:57;;;;;;;6.70;4.68;;;8.80;99.90;;;;;;2146802;66;20742;-68
2021/12/01 08:07:40;;;;;;;13.85;5.13;;;8.80;99.90;;;;;;2159740;66;20176;-66
2021/12/01 08:10:22;;;;;;;6.93;4.28;;;8.80;99.90;;;;;;2137586;66;20880;-66
2021/12/01 08:13:04;;;;;;;6.57;4.68;;;8.80;99.90;;;;;;2135854;67;20420;-66
2021/12/01 08:15:50;;;;;;;6.00;4.32;;;8.70;99.90;;;;;;2132351;67;20175;-67
2021/12/01 08:18:32;;;;;;;5.80;3.97;;;8.70;99.90;;;;;;2119015;67;20181;-67
2021/12/01 08:21:14;;;;;;;5.93;4.25;;;8.70;99.90;;;;;;2116489;67;20334;-67
2021/12/01 08:23:56;;;;;;;7.65;5.65;;;8.80;99.90;;;;;;2111745;67;20335;-67
2021/12/01 08:26:44;;;;;;;8.02;4.38;;;8.80;99.90;;;;;;2112991;67;20349;-66
2021/12/01 08:29:29;;;;;;;16.80;5.47;;;8.70;99.90;;;;;;2110786;67;20224;-67
2021/12/01 08:32:11;;;;;;;8.10;4.85;;;8.70;99.90;;;;;;2123744;67;20194;-66
2021/12/01 08:34:52;;;;;;;7.57;5.13;;;8.70;99.90;;;;;;2125044;67;20390;-66
2021/12/01 08:37:34;;;;;;;6.32;3.65;;;8.70;99.90;;;;;;2110133;67;20161;-66
2021/12/01 08:40:18;;;;;;;5.13;3.25;;;8.70;99.90;;;;;;2107007;67;20210;-66
2021/12/01 08:43:00;;;;;;;5.43;3.45;;;8.70;99.90;;;;;;2105378;67;20171;-66
2021/12/01 08:45:42;;;;;;;7.95;2.35;;;8.70;99.90;;;;;;2117624;67;20704;-66
2021/12/01 08:48:24;;;;;;;10.90;2.85;;;8.60;99.90;;;;;;2132234;67;20737;-66
2021/12/01 08:51:07;;;;;;;7.45;2.10;;;8.60;99.90;;;;;;2128853;67;20580;-66
2021/12/01 08:53:49;;;;;;;11.82;2.80;;;8.50;99.90;;;;;;2133253;67;20336;-65
2021/12/01 08:56:31;;;;;;;8.60;1.98;;;8.40;99.90;;;;;;2126501;67;20701;-65
2021/12/01 08:59:16;;;;;;;3.83;1.75;;;8.40;99.90;;;;;;2111553;67;20609;-66
2021/12/01 09:02:00;;;;;;;11.75;2.65;;;8.40;99.90;;;;;;2123051;67;20791;-66
2021/12/01 09:04:43;;;;;;;8.48;2.78;;;8.30;99.90;;;;;;2123462;67;20200;-67
2021/12/01 09:07:27;;;;;;;7.68;3.03;;;8.30;99.90;;;;;;2119199;67;20205;-67
2021/12/01 09:10:10;;;;;;;5.45;1.63;;;8.30;99.90;;;;;;2124999;67;20164;-67
2021/12/01 09:12:51;;;;;;;4.05;1.45;;;8.30;99.90;;;;;;2125025;67;20226;-68
2021/12/01 09:15:35;;;;;;;10.13;2.60;;;8.20;99.90;;;;;;2138729;66;20708;-67
2021/12/01 09:18:21;;;;;;;2.97;1.55;;;8.20;99.90;;;;;;2146713;66;20158;-68
2021/12/01 09:21:05;;;;;;;6.15;1.80;;;8.40;99.90;;;;;;2139104;67;20753;-66
2021/12/01 09:23:50;;;;;;;5.88;2.00;;;8.20;99.90;;;;;;2125036;67;20352;-66
2021/12/01 09:26:32;;;;;;;3.35;1.35;;;8.20;99.90;;;;;;2116432;67;20392;-67
2021/12/01 09:29:14;;;;;;;8.93;2.00;;;8.30;99.90;;;;;;2128552;67;20209;-70
2021/12/01 09:31:58;;;;;;;6.85;1.23;;;8.30;99.90;;;;;;2119982;67;20380;-70
2021/12/01 09:34:41;;;;;;;7.15;1.70;;;8.30;99.90;;;;;;2110938;67;20409;-71
2021/12/01 09:37:23;;;;;;;7.15;1.73;;;8.20;99.90;;;;;;2122947;67;20209;-69
2021/12/01 09:40:24;;;;;;;6.60;1.63;;;8.30;99.90;;;;;;2128776;67;20207;-69
2021/12/01 09:43:06;;;;;;;8.95;1.55;;;8.20;99.90;;;;;;2125645;67;20620;-69
2021/12/01 09:45:48;;;;;;;8.38;2.03;;;8.20;99.90;;;;;;2126016;67;20588;-72
2021/12/01 09:48:32;;;;;;;7.63;2.22;;;8.40;99.90;;;;;;2125162;67;20195;-68
2021/12/01 09:51:17;;;;;;;8.60;1.45;;;8.20;99.90;;;;;;2136556;67;20381;-67
2021/12/01 09:54:02;;;;;;;11.77;1.70;;;8.20;99.90;;;;;;2132772;67;20321;-69
2021/12/01 09:56:45;;;;;;;4.63;1.17;;;8.10;99.90;;;;;;2126446;67;20358;-69
2021/12/01 09:59:27;;;;;;;6.43;1.92;;;8.10;99.90;;;;;;2109855;67;20234;-71
2021/12/01 10:02:10;;;;;;;8.30;1.52;;;8.10;99.90;;;;;;2113746;67;20228;-72
2021/12/01 10:04:53;;;;;;;5.10;2.53;;;8.20;99.90;;;;;;2110950;67;20703;-68
2021/12/01 10:07:35;;;;;;;7.70;2.30;;;8.20;99.90;;;;;;2088851;68;20199;-65
2021/12/01 10:10:19;;;;;;;8.98;1.85;;;8.20;99.90;;;;;;2082105;68;20257;-65
2021/12/01 10:13:01;;;;;;;7.63;2.25;;;8.20;99.90;;;;;;2087399;68;20180;-67
2021/12/01 10:15:44;;;;;;;9.95;2.05;;;8.30;99.90;;;;;;2090384;68;20202;-66
2021/12/01 10:18:36;;;;;;;12.52;2.78;;;8.40;99.90;;;;;;2092593;68;20178;-67
2021/12/01 10:21:32;;;;;;;13.70;2.30;;;8.40;99.90;;;;;;2090378;68;20267;-65
2021/12/01 10:24:36;;;;;;;16.85;2.50;;;8.50;99.90;;;;;;2109113;67;20323;-71
2021/12/01 10:27:18;;;;;;;20.45;2.85;;;8.50;99.90;;;;;;2105082;67;20445;-68
2021/12/01 10:30:00;;;;;;;17.73;3.13;;;8.60;99.90;;;;;;2112593;67;20639;-66
2021/12/01 10:32:43;;;;;;;12.73;2.75;;;8.60;99.90;;;;;;2126026;67;20452;-65
2021/12/01 10:35:34;;;;;;;;;;;8.60;99.90;;;;;;2116269;67;20333;-66
2021/12/01 10:38:26;;;;;;;7.85;2.50;;;8.50;99.90;;;;;;2121172;67;20084;-65
2021/12/01 10:41:13;;;;;;;11.00;2.50;;;8.40;99.90;;;;;;2113334;67;20184;-65
2021/12/01 10:43:55;;;;;;;12.00;2.60;;;8.30;99.90;;;;;;2130215;67;20372;-66
2021/12/01 10:46:53;;;;;;;15.70;3.10;;;8.20;99.90;;;;;;2130769;67;20191;-65
2021/12/01 10:49:43;;;;;;;12.70;2.22;;;8.10;99.90;;;;;;2120320;67;20275;-69
2021/12/01 10:52:32;;;;;;;8.25;2.63;;;8.20;99.90;;;;;;2124520;67;20365;-68
2021/12/01 10:55:19;;;;;;;8.27;2.88;;;8.20;99.90;;;;;;2133336;66;20594;-69
2021/12/01 10:58:06;;;;;;;6.65;1.77;;;8.30;99.90;;;;;;2143126;66;20320;-69
2021/12/01 11:00:50;;;;;;;14.10;2.45;;;8.30;99.90;;;;;;2146941;66;20322;-69
2021/12/01 11:03:33;;;;;;;6.75;1.92;;;8.50;99.90;;;;;;2132885;67;20433;-71
2021/12/01 11:06:21;;;;;;;7.18;1.77;;;8.60;99.90;;;;;;2134688;67;20220;-69
2021/12/01 11:09:02;;;;;;;7.63;1.85;;;8.60;99.90;;;;;;2124927;67;20200;-69
2021/12/01 11:11:51;;;;;;;4.88;1.90;;;8.60;99.90;;;;;;2120957;67;20203;-68
2021/12/01 11:14:43;;;;;;;4.03;1.55;;;8.60;99.90;;;;;;2135828;66;20270;-69
2021/12/01 11:18:01;;;;;;;7.95;1.98;;;8.60;99.90;;;;;;2143320;66;20229;-69
2021/12/01 11:20:48;;;;;;;4.95;1.75;;;8.50;99.90;;;;;;2132414;67;20268;-69
2021/12/01 11:23:34;;;;;;;6.00;1.38;;;8.60;99.90;;;;;;2138555;66;20806;-68
2021/12/01 11:26:23;;;;;;;8.07;1.80;;;8.60;99.90;;;;;;2137699;66;20740;-69
2021/12/01 11:29:12;;;;;;;12.30;3.05;;;8.60;99.90;;;;;;2117457;67;20382;-69
2021/12/01 11:31:54;;;;;;;12.75;2.75;;;8.50;99.90;;;;;;2123131;67;20212;-71
2021/12/01 11:34:37;;;;;;;7.53;2.25;;;8.60;99.90;;;;;;2124230;67;20163;-66
2021/12/01 11:37:23;;;;;;;;;;;8.60;99.90;;;;;;2134704;66;20347;-68
2021/12/01 11:40:07;;;;;;;10.38;3.42;;;8.60;99.90;;;;;;2121453;67;20197;-69
2021/12/01 11:42:49;;;;;;;16.88;3.92;;;8.30;99.90;;;;;;2118525;67;20231;-68
2021/12/01 11:45:32;;;;;;;14.52;3.22;;;8.10;99.90;;;;;;2116030;67;20338;-69
2021/12/01 11:48:42;;;;;;;22.42;3.22;;;8.00;99.90;;;;;;2124498;67;20712;-69
2021/12/01 11:51:30;;;;;;;12.82;3.15;;;7.90;99.90;;;;;;2118237;67;20220;-67
2021/12/01 11:54:19;;;;;;;12.23;3.47;;;7.70;99.90;;;;;;2111238;67;20258;-71
2021/12/01 11:57:04;;;;;;;19.80;4.03;;;7.60;99.90;;;;;;2099390;68;20578;-69
2021/12/01 11:59:49;;;;;;;15.93;3.70;;;7.50;99.90;;;;;;2106168;67;20334;-70
2021/12/01 12:02:31;;;;;;;19.40;3.25;;;7.50;99.90;;;;;;2112041;67;20210;-69
2021/12/01 12:05:16;;;;;;;12.15;2.97;;;7.40;99.90;;;;;;2105942;67;20173;-68
2021/12/01 12:07:57;;;;;;;15.32;3.45;;;7.40;99.90;;;;;;2091231;68;20681;-69
2021/12/01 12:10:39;;;;;;;16.52;3.58;;;7.50;99.90;;;;;;2104225;67;20208;-68
2021/12/01 12:13:21;;;;;;;9.45;2.92;;;7.60;99.90;;;;;;2112812;67;20165;-69
2021/12/01 12:16:24;;;;;;;18.90;3.28;;;7.70;99.90;;;;;;2123837;67;20430;-69
2021/12/01 12:19:05;;;;;;;19.98;4.03;;;7.80;99.90;;;;;;2125037;67;20345;-70
2021/12/01 12:22:00;;;;;;;11.68;3.38;;;7.90;99.90;;;;;;2123841;67;20255;-69
2021/12/01 12:24:51;;;;;;;9.80;2.92;;;7.80;99.90;;;;;;2119279;67;20236;-70
2021/12/01 12:27:42;;;;;;;11.65;2.65;;;7.80;99.90;;;;;;2139495;67;20194;-69
2021/12/01 12:30:29;;;;;;;11.52;3.00;;;7.80;99.90;;;;;;2128034;67;20435;-70
2021/12/01 12:33:33;;;;;;;10.50;2.10;;;8.00;99.90;;;;;;2118339;67;20173;-70
2021/12/01 12:36:16;;;;;;;13.93;3.35;;;7.90;99.90;;;;;;2129277;67;20714;-69
2021/12/01 12:39:04;;;;;;;;;;;8.00;99.90;;;;;;2143469;66;20325;-69
2021/12/01 12:42:01;;;;;;;10.13;2.05;;;8.00;99.90;;;;;;2141428;66;20300;-74
2021/12/01 12:45:07;;;;;;;8.48;2.60;;;8.00;99.90;;;;;;2151565;66;20169;-72
2021/12/01 12:47:52;;;;;;;10.68;2.60;;;8.00;99.90;;;;;;2155873;66;20841;-70
2021/12/01 12:50:38;;;;;;;12.23;2.28;;;7.80;99.90;;;;;;2154258;66;20708;-71
2021/12/01 12:53:24;;;;;;;7.72;2.63;;;7.80;99.90;;;;;;2143187;66;20584;-70
2021/12/01 12:56:30;;;;;;;5.30;2.00;;;7.80;99.90;;;;;;2144508;66;20255;-70
2021/12/01 12:59:20;;;;;;;15.38;2.67;;;7.80;99.90;;;;;;2134525;66;20257;-70
2021/12/01 13:02:10;;;;;;;6.60;2.50;;;7.60;99.90;;;;;;2125403;67;20272;-70
2021/12/01 13:04:58;;;;;;;8.18;2.35;;;7.60;99.90;;;;;;2126005;67;20190;-69
2021/12/01 13:07:48;;;;;;;8.27;2.53;;;7.50;99.90;;;;;;2139341;66;20266;-69
2021/12/01 13:10:34;;;;;;;9.23;2.90;;;7.50;99.90;;;;;;2139654;66;20753;-69
2021/12/01 13:13:35;;;;;;;13.18;3.05;;;7.60;99.90;;;;;;2136448;66;20703;-70
2021/12/01 13:16:20;;;;;;;11.20;2.60;;;7.70;99.90;;;;;;2139047;67;20726;-70
2021/12/01 13:19:07;;;;;;;9.48;2.50;;;7.70;99.90;;;;;;2134615;67;20817;-67
2021/12/01 13:21:52;;;;;;;11.07;2.65;;;7.60;99.90;;;;;;2119694;67;20189;-66
2021/12/01 13:24:37;;;;;;;9.98;2.75;;;7.60;99.90;;;;;;2130536;66;20667;-69
2021/12/01 13:27:20;;;;;;;5.35;1.80;;;7.50;99.90;;;;;;2135921;66;20297;-69
2021/12/01 13:30:13;;;;;;;8.30;2.63;;;7.50;99.90;;;;;;2130872;67;20377;-68
2021/12/01 13:33:14;;;;;;;7.07;1.60;;;7.50;99.90;;;;;;2111606;67;20312;-71
2021/12/01 13:35:55;;;;;;;8.07;2.55;;;7.50;99.90;;;;;;2105461;67;20717;-69
2021/12/01 13:38:37;;;;;;;14.90;2.47;;;7.40;99.90;;;;;;2104343;67;20799;-68
2021/12/01 13:41:19;;;;;;;12.82;1.83;;;7.20;99.90;;;;;;2102814;68;20186;-69
2021/12/01 13:44:10;;;;;;;10.43;4.10;;;6.90;99.90;;;;;;2100899;67;20206;-68
2021/12/01 13:47:20;;;;;;;6.70;2.28;;;6.70;99.90;;;;;;2103778;68;20282;-68
2021/12/01 13:50:05;;;;;;;11.95;2.45;;;6.60;99.90;;;;;;2102229;67;20809;-67
2021/12/01 13:52:51;;;;;;;7.85;2.13;;;6.50;99.90;;;;;;2096395;68;20567;-67
2021/12/01 13:55:40;;;;;;;9.95;1.80;;;6.40;99.90;;;;;;2095289;68;21190;-68
2021/12/01 13:58:23;;;;;;;7.00;1.65;;;6.30;99.90;;;;;;2108055;67;20473;-68
2021/12/01 14:01:06;;;;;;;7.80;2.08;;;6.30;99.90;;;;;;2136990;66;20383;-70
2021/12/01 14:04:02;;;;;;;7.00;2.08;;;6.30;99.90;;;;;;2124502;67;20164;-68
2021/12/01 14:06:44;;;;;;;4.63;1.17;;;6.20;99.90;;;;;;2115218;67;20342;-67
2021/12/01 14:09:36;;;;;;;9.10;2.20;;;6.10;99.90;;;;;;2096403;68;20350;-67
2021/12/01 14:12:22;;;;;;;11.05;2.53;;;6.20;99.90;;;;;;2117845;67;20266;-67
2021/12/01 14:15:07;;;;;;;8.40;1.95;;;6.20;99.90;;;;;;2138971;66;20200;-68
2021/12/01 14:17:49;;;;;;;3.65;1.65;;;6.30;99.90;;;;;;2134853;67;20356;-67
2021/12/01 14:20:32;;;;;;;5.90;1.83;;;6.20;99.90;;;;;;2129141;67;20289;-67
2021/12/01 14:23:15;;;;;;;5.63;1.50;;;6.20;99.90;;;;;;2137387;67;20252;-67
2021/12/01 14:25:57;;;;;;;8.57;1.77;;;6.20;99.90;;;;;;2125076;67;20558;-69
2021/12/01 14:28:42;;;;;;;5.47;1.75;;;6.10;99.90;;;;;;2118163;67;20260;-69
2021/12/01 14:31:26;;;;;;;9.45;2.30;;;6.10;99.90;;;;;;2118967;67;20449;-70
2021/12/01 14:34:23;;;;;;;11.45;1.88;;;6.10;99.90;;;;;;2119124;67;20239;-69
2021/12/01 14:37:12;;;;;;;11.07;2.15;;;6.10;99.90;;;;;;2119317;67;20278;-67